createdAt,value
2023-06-08T00:02:15.750Z,12.57
2023-06-08T00:04:43.144Z,12.50
2023-06-08T00:07:10.025Z,12.46
2023-06-08T00:09:39.398Z,12.39
2023-06-08T00:12:12.619Z,12.34
2023-06-08T00:14:42.337Z,12.28
2023-06-08T00:17:12.065Z,12.19
2023-06-08T00:19:43.556Z,12.13
2023-06-08T00:22:14.216Z,12.08
2023-06-08T00:24:50.048Z,12.03
2023-06-08T00:27:16.810Z,11.99
2023-06-08T00:29:43.705Z,11.99
2023-06-08T00:32:10.530Z,11.93
2023-06-08T00:34:39.878Z,11.91
2023-06-08T00:37:11.471Z,11.87
2023-06-08T00:39:40.719Z,11.86
2023-06-08T00:42:11.658Z,11.85
2023-06-08T00:44:41.525Z,11.84
2023-06-08T00:47:11.271Z,11.84
2023-06-08T00:49:46.281Z,11.76
2023-06-08T00:52:14.497Z,11.72
2023-06-08T00:54:41.236Z,11.69
2023-06-08T00:57:11.373Z,11.64
2023-06-08T00:59:41.325Z,11.66
2023-06-08T01:02:09.312Z,11.70
2023-06-08T01:04:37.301Z,11.75
2023-06-08T01:07:26.478Z,11.75
2023-06-08T01:09:57.288Z,11.76
2023-06-08T01:12:34.830Z,11.78
2023-06-08T01:15:10.539Z,11.77
2023-06-08T01:17:43.574Z,11.77
2023-06-08T01:20:16.692Z,11.74
2023-06-08T01:22:58.679Z,11.70
2023-06-08T01:25:30.691Z,11.67
2023-06-08T01:28:13.618Z,11.67
2023-06-08T01:30:42.008Z,11.60
2023-06-08T01:33:12.284Z,11.53
2023-06-08T01:35:39.096Z,11.57
2023-06-08T01:38:22.523Z,11.55
2023-06-08T01:40:56.429Z,11.55
2023-06-08T01:43:24.828Z,11.54
2023-06-08T01:45:53.192Z,11.52
2023-06-08T01:48:31.302Z,11.48
2023-06-08T01:50:59.202Z,11.52
2023-06-08T01:53:25.956Z,11.52
2023-06-08T01:56:01.553Z,11.46
2023-06-08T01:58:28.237Z,11.39
2023-06-08T02:00:54.982Z,11.43
2023-06-08T02:03:21.801Z,11.38
2023-06-08T02:05:48.479Z,11.36
2023-06-08T02:08:15.108Z,11.31
2023-06-08T02:10:41.707Z,11.34
2023-06-08T02:13:08.516Z,11.25
2023-06-08T02:15:35.508Z,11.14
2023-06-08T02:18:02.750Z,11.03
2023-06-08T02:20:34.698Z,10.96
2023-06-08T02:23:01.571Z,10.97
2023-06-08T02:25:28.533Z,10.96
2023-06-08T02:28:07.810Z,10.88
2023-06-08T02:30:34.585Z,10.81
2023-06-08T02:33:01.524Z,10.78
2023-06-08T02:35:42.184Z,10.77
2023-06-08T02:38:08.970Z,10.78
2023-06-08T02:40:36.818Z,10.83
2023-06-08T02:43:03.685Z,10.83
2023-06-08T02:45:31.596Z,10.77
2023-06-08T02:47:59.752Z,10.72
2023-06-08T02:50:26.470Z,10.72
2023-06-08T02:52:53.144Z,10.68
2023-06-08T02:55:19.860Z,10.67
2023-06-08T02:57:50.203Z,10.66
2023-06-08T03:00:17.907Z,10.63
2023-06-08T03:03:07.619Z,10.66
2023-06-08T03:05:40.283Z,10.70
2023-06-08T03:08:08.282Z,10.72
2023-06-08T03:10:35.665Z,10.73
2023-06-08T03:13:07.917Z,10.75
2023-06-08T03:15:34.539Z,10.67
2023-06-08T03:18:02.828Z,10.64
2023-06-08T03:20:52.945Z,10.69
2023-06-08T03:23:37.525Z,10.76
2023-06-08T03:26:26.217Z,10.65
2023-06-08T03:28:59.253Z,10.68
2023-06-08T03:34:43.417Z,10.76
2023-06-08T03:37:15.944Z,10.70
2023-06-08T03:46:25.315Z,10.63
2023-06-08T03:48:28.041Z,10.64
2023-06-08T03:51:05.026Z,10.62
2023-06-08T03:53:51.920Z,10.62
2023-06-08T03:56:27.225Z,10.56
2023-06-08T03:59:27.262Z,10.43
2023-06-08T04:01:58.460Z,10.42
2023-06-08T04:04:31.894Z,10.46
2023-06-08T04:07:26.293Z,10.35
2023-06-08T04:10:04.660Z,10.39
2023-06-08T04:16:09.860Z,10.31
2023-06-08T04:21:34.870Z,10.25
2023-06-08T04:27:23.899Z,10.35
2023-06-08T04:30:24.668Z,10.48
2023-06-08T04:33:23.362Z,10.48
2023-06-08T04:35:54.579Z,10.53
2023-06-08T04:41:36.246Z,10.59
2023-06-08T04:46:54.615Z,10.45
2023-06-08T04:53:11.748Z,10.68
2023-06-08T04:56:11.498Z,10.71
2023-06-08T04:59:07.961Z,10.68
2023-06-08T05:01:51.611Z,10.73
2023-06-08T05:04:26.156Z,10.81
2023-06-08T05:07:36.569Z,10.83
2023-06-08T05:10:07.221Z,10.91
2023-06-08T05:12:48.682Z,11.00
2023-06-08T05:15:45.570Z,10.90
2023-06-08T05:18:37.097Z,10.90
2023-06-08T05:21:26.353Z,10.89
2023-06-08T05:24:12.537Z,10.89
2023-06-08T05:26:41.807Z,10.81
2023-06-08T05:29:13.967Z,10.89
2023-06-08T05:32:15.130Z,10.97
2023-06-08T05:37:31.648Z,10.98
2023-06-08T05:38:01.864Z,11.05
2023-06-08T05:40:35.511Z,11.17
2023-06-08T05:43:16.637Z,11.36
2023-06-08T05:46:26.009Z,11.43
2023-06-08T05:49:01.886Z,11.51
2023-06-08T05:51:28.849Z,11.80
2023-06-08T05:53:55.636Z,11.92
2023-06-08T05:56:22.510Z,11.89
2023-06-08T05:58:50.273Z,11.90
2023-06-08T06:01:21.111Z,12.12
2023-06-08T06:03:49.517Z,12.19
2023-06-08T06:06:17.996Z,12.42
2023-06-08T06:08:48.211Z,12.47
2023-06-08T06:11:16.146Z,12.60
2023-06-08T06:13:50.948Z,12.61
2023-06-08T06:16:19.248Z,12.74
2023-06-08T06:18:49.825Z,12.85
2023-06-08T06:51:49.807Z,13.63
2023-06-08T06:54:18.583Z,13.59
2023-06-08T06:56:47.402Z,13.99
2023-06-08T06:59:16.214Z,13.85
2023-06-08T07:01:44.441Z,13.81
2023-06-08T07:04:13.208Z,13.63
2023-06-08T07:06:43.357Z,13.85
2023-06-08T07:09:12.123Z,14.08
2023-06-08T07:17:23.419Z,14.12
2023-06-08T07:23:39.912Z,14.40
2023-06-08T07:26:29.455Z,14.56
2023-06-08T07:28:57.108Z,14.41
2023-06-08T07:31:33.317Z,14.12
2023-06-08T07:34:00.207Z,14.20
2023-06-08T07:36:29.743Z,14.53
2023-06-08T07:39:00.658Z,14.38
2023-06-08T07:41:28.742Z,14.28
2023-06-08T07:43:56.873Z,14.78
2023-06-08T07:46:24.478Z,15.10
2023-06-08T07:48:51.262Z,14.75
2023-06-08T07:51:20.527Z,14.86
2023-06-08T07:53:47.243Z,15.80
2023-06-08T07:56:19.297Z,15.88
2023-06-08T07:58:49.474Z,16.22
2023-06-08T08:01:17.805Z,16.32
2023-06-08T08:03:46.818Z,16.04
2023-06-08T08:06:14.414Z,16.12
2023-06-08T08:08:41.565Z,16.82
2023-06-08T08:11:09.793Z,15.97
2023-06-08T08:13:37.013Z,16.28
2023-06-08T08:16:03.952Z,16.19
2023-06-08T08:18:38.506Z,16.22
2023-06-08T08:21:05.930Z,16.20
2023-06-08T08:23:38.058Z,16.38
2023-06-08T08:26:07.722Z,16.53
2023-06-08T08:28:38.908Z,16.48
2023-06-08T08:31:06.056Z,16.23
2023-06-08T08:33:40.860Z,16.07
2023-06-08T08:36:10.117Z,16.16
2023-06-08T08:38:41.714Z,16.28
2023-06-08T08:41:32.634Z,16.42
2023-06-08T08:44:10.955Z,16.69
2023-06-08T08:46:40.840Z,16.75
2023-06-08T08:49:15.150Z,16.90
2023-06-08T08:51:55.956Z,17.42
2023-06-08T08:54:33.085Z,17.40
2023-06-08T08:57:00.084Z,17.48
2023-06-08T08:59:47.700Z,17.41
2023-06-08T09:02:24.277Z,17.60
2023-06-08T09:04:57.373Z,18.44
2023-06-08T09:07:26.555Z,18.59
2023-06-08T09:10:16.457Z,18.67
2023-06-08T09:12:50.940Z,18.34
2023-06-08T09:15:33.567Z,18.27
2023-06-08T09:18:04.400Z,18.31
2023-06-08T09:20:33.459Z,18.31
2023-06-08T09:23:17.474Z,18.20
2023-06-08T09:25:44.748Z,17.93
2023-06-08T09:28:16.532Z,18.53
2023-06-08T09:30:50.717Z,18.79
2023-06-08T09:33:29.421Z,19.28
2023-06-08T09:35:59.547Z,19.11
2023-06-08T09:38:28.486Z,19.03
2023-06-08T09:41:15.838Z,18.94
2023-06-08T09:43:49.396Z,19.09
2023-06-08T09:46:35.691Z,19.18
2023-06-08T09:49:08.794Z,19.57
2023-06-08T09:51:38.873Z,19.69
2023-06-08T09:54:08.263Z,19.77
2023-06-08T09:56:41.078Z,19.51
2023-06-08T09:59:12.863Z,19.44
2023-06-08T10:16:28.911Z,21.53
2023-06-08T10:24:01.892Z,20.93
2023-06-08T10:27:20.456Z,20.48
2023-06-08T10:33:25.759Z,20.75
2023-06-08T10:36:25.381Z,20.88
2023-06-08T10:39:47.192Z,21.15
2023-06-08T10:55:52.456Z,22.10
2023-06-08T11:02:41.209Z,21.96
2023-06-08T11:16:28.771Z,21.30
2023-06-08T11:19:55.847Z,21.38
2023-06-08T11:22:44.745Z,22.35
2023-06-08T11:23:54.875Z,21.66
2023-06-08T11:26:07.560Z,22.44
2023-06-08T11:46:34.462Z,23.85
2023-06-08T11:49:51.345Z,23.42
2023-06-08T12:00:24.031Z,22.81
2023-06-08T12:04:09.953Z,22.64
2023-06-08T12:07:02.300Z,22.78
2023-06-08T12:12:49.245Z,21.96
2023-06-08T12:15:18.691Z,22.02
2023-06-08T12:17:50.098Z,21.74
2023-06-08T12:20:52.823Z,21.56
2023-06-08T12:23:41.655Z,21.38
2023-06-08T12:27:49.716Z,21.52
2023-06-08T12:31:12.225Z,21.49
2023-06-08T12:34:22.567Z,21.51
2023-06-08T12:36:59.782Z,21.62
2023-06-08T12:39:59.534Z,21.97
2023-06-08T12:43:34.360Z,22.42
2023-06-08T12:46:54.789Z,22.77
2023-06-08T12:49:45.478Z,23.07
2023-06-08T12:52:23.867Z,23.16
2023-06-08T12:56:09.240Z,23.01
2023-06-08T12:58:57.664Z,23.05
2023-06-08T13:01:36.639Z,23.17
2023-06-08T13:04:05.339Z,23.07
2023-06-08T13:06:35.232Z,22.98
2023-06-08T13:09:08.805Z,23.21
2023-06-08T13:14:34.423Z,23.17
2023-06-08T13:17:05.185Z,23.25
2023-06-08T13:19:32.991Z,23.76
2023-06-08T13:22:01.705Z,23.65
2023-06-08T13:24:33.535Z,23.80
2023-06-08T13:27:02.221Z,23.78
2023-06-08T13:29:33.465Z,23.72
2023-06-08T13:32:01.765Z,23.97
2023-06-08T13:34:29.199Z,23.57
2023-06-08T13:36:57.521Z,23.44
2023-06-08T13:39:24.394Z,23.93
2023-06-08T13:41:53.094Z,24.38
2023-06-08T13:44:21.017Z,24.72
2023-06-08T13:46:49.420Z,24.96
2023-06-08T13:49:17.775Z,25.08
2023-06-08T13:51:46.283Z,25.16
2023-06-08T13:54:13.128Z,24.99
2023-06-08T13:56:41.878Z,24.60
2023-06-08T13:59:09.207Z,24.61
2023-06-08T14:01:38.672Z,24.52
2023-06-08T14:04:08.279Z,24.81
2023-06-08T14:06:35.554Z,25.09
2023-06-08T14:09:04.241Z,24.92
2023-06-08T14:11:33.036Z,24.69
2023-06-08T14:14:01.392Z,24.52
2023-06-08T14:16:29.574Z,24.67
2023-06-08T14:18:57.077Z,24.68
2023-06-08T14:21:25.317Z,24.16
2023-06-08T14:23:54.997Z,23.96
2023-06-08T14:26:24.967Z,24.31
2023-06-08T14:28:52.785Z,24.41
2023-06-08T14:31:20.271Z,24.27
2023-06-08T14:33:48.422Z,24.01
2023-06-08T14:36:15.296Z,23.81
2023-06-08T14:38:42.442Z,23.59
2023-06-08T14:41:09.867Z,23.52
2023-06-08T14:43:36.862Z,23.63
2023-06-08T14:46:04.701Z,23.86
2023-06-08T14:48:32.742Z,23.86
2023-06-08T14:50:59.942Z,23.73
2023-06-08T14:53:27.113Z,23.79
2023-06-08T14:55:55.329Z,23.81
2023-06-08T14:58:25.464Z,23.77
2023-06-08T15:00:53.391Z,23.53
2023-06-08T15:03:20.482Z,23.62
2023-06-08T15:05:48.190Z,23.59
2023-06-08T15:08:18.739Z,23.53
2023-06-08T15:10:45.864Z,23.73
2023-06-08T15:13:14.012Z,23.73
2023-06-08T15:15:41.715Z,23.71
2023-06-08T15:18:12.390Z,23.75
2023-06-08T15:20:39.379Z,23.70
2023-06-08T15:23:07.239Z,23.79
2023-06-08T15:25:34.029Z,23.85
2023-06-08T15:28:02.162Z,23.78
2023-06-08T15:30:29.818Z,23.97
2023-06-08T15:32:57.062Z,23.85
2023-06-08T15:35:25.129Z,23.97
2023-06-08T15:37:53.461Z,23.88
2023-06-08T15:40:22.047Z,23.91
2023-06-08T15:42:50.223Z,23.87
2023-06-08T15:45:17.663Z,23.94
2023-06-08T15:47:46.484Z,23.80
2023-06-08T15:50:16.482Z,23.90
2023-06-08T15:52:43.678Z,23.70
2023-06-08T15:55:11.419Z,24.03
2023-06-08T15:57:39.436Z,24.08
2023-06-08T16:00:09.046Z,24.10
2023-06-08T16:02:39.629Z,24.11
2023-06-08T16:05:11.476Z,24.15
2023-06-08T16:07:39.372Z,24.29
2023-06-08T16:10:07.663Z,24.64
2023-06-08T16:12:35.569Z,24.55
2023-06-08T16:15:05.375Z,24.54
2023-06-08T16:17:32.962Z,24.51
2023-06-08T16:20:00.283Z,24.63
2023-06-08T16:22:29.856Z,24.61
2023-06-08T16:24:58.034Z,24.78
2023-06-08T16:27:25.314Z,24.97
2023-06-08T16:29:54.003Z,25.32
2023-06-08T16:32:22.141Z,25.35
2023-06-08T16:34:49.676Z,25.12
2023-06-08T16:37:17.350Z,25.04
2023-06-08T16:39:46.083Z,24.69
2023-06-08T16:42:14.992Z,24.39
2023-06-08T16:44:44.704Z,24.27
2023-06-08T16:47:13.167Z,24.25
2023-06-08T16:49:45.026Z,24.38
2023-06-08T16:52:18.968Z,24.36
2023-06-08T16:54:46.685Z,24.54
2023-06-08T16:57:15.094Z,24.60
2023-06-08T16:59:43.472Z,24.58
2023-06-08T17:03:26.579Z,24.59
2023-06-08T17:06:32.694Z,24.62
2023-06-08T17:12:22.736Z,24.49
2023-06-08T17:21:27.377Z,23.58
2023-06-08T17:24:14.975Z,23.59
2023-06-08T17:29:52.164Z,23.36
2023-06-08T17:32:37.354Z,23.18
2023-06-08T17:35:37.573Z,22.83
2023-06-08T17:38:23.054Z,22.67
2023-06-08T17:41:01.613Z,22.65
2023-06-08T17:43:59.903Z,22.84
2023-06-08T17:46:34.499Z,23.16
2023-06-08T17:49:16.285Z,23.22
2023-06-08T17:52:04.901Z,23.23
2023-06-08T17:55:02.267Z,23.10
2023-06-08T17:58:09.186Z,22.79
2023-06-08T18:00:41.985Z,22.55
2023-06-08T18:03:34.416Z,22.35
2023-06-08T18:06:25.455Z,22.12
2023-06-08T18:09:30.073Z,21.91
2023-06-08T18:12:22.286Z,21.82
2023-06-08T18:14:52.206Z,21.64
2023-06-08T18:17:31.225Z,21.53
2023-06-08T18:20:19.494Z,21.40
2023-06-08T18:22:58.100Z,21.38
2023-06-08T18:26:08.975Z,21.36
2023-06-08T18:31:37.815Z,21.48
2023-06-08T18:34:34.044Z,21.42
2023-06-08T18:37:08.044Z,21.26
2023-06-08T18:39:58.207Z,21.15
2023-06-08T18:42:51.254Z,21.07
2023-06-08T18:45:45.362Z,20.93
2023-06-08T18:48:16.745Z,20.94
2023-06-08T18:50:44.246Z,20.87
2023-06-08T18:53:14.425Z,20.82
2023-06-08T18:56:11.673Z,20.81
2023-06-08T19:04:13.239Z,20.58
2023-06-08T19:06:58.124Z,20.48
2023-06-08T19:27:02.055Z,19.95
2023-06-08T19:33:57.245Z,19.41
2023-06-08T20:55:40.720Z,16.85
2023-06-08T20:58:08.951Z,16.91
2023-06-08T21:00:37.271Z,16.84
2023-06-08T21:03:06.267Z,16.75
2023-06-08T21:05:39.160Z,16.72
2023-06-08T21:08:08.383Z,16.71
2023-06-08T21:10:37.486Z,16.58
2023-06-08T21:13:06.259Z,16.50
2023-06-08T21:15:34.878Z,16.31
2023-06-08T21:18:04.453Z,16.20
2023-06-08T21:20:33.404Z,16.08
2023-06-08T21:23:01.699Z,16.08
2023-06-08T21:25:30.653Z,15.98
2023-06-08T21:27:58.722Z,15.94
2023-06-08T21:30:27.304Z,15.98
2023-06-08T21:32:55.723Z,15.98
2023-06-08T21:35:24.188Z,16.30
2023-06-08T21:37:52.997Z,16.51
2023-06-08T21:43:23.017Z,16.49
2023-06-08T21:46:37.203Z,16.45
2023-06-08T21:49:08.355Z,16.45
2023-06-08T21:51:35.752Z,16.35
2023-06-08T21:54:02.756Z,16.30
2023-06-08T21:56:30.509Z,16.22
2023-06-08T21:58:57.876Z,16.07
2023-06-08T22:01:27.323Z,15.94
2023-06-08T22:03:57.428Z,15.91
2023-06-08T22:06:25.179Z,15.89
2023-06-08T22:08:53.017Z,15.91
2023-06-08T22:11:21.591Z,15.82
2023-06-08T22:13:52.689Z,15.81
2023-06-08T22:16:21.715Z,15.82
2023-06-08T22:18:49.343Z,15.72
2023-06-08T22:21:18.605Z,15.61
2023-06-08T22:23:46.189Z,15.51
2023-06-08T22:26:31.149Z,15.51
2023-06-08T22:29:13.765Z,15.49
2023-06-08T22:35:03.173Z,15.35
2023-06-08T22:40:23.500Z,15.36
2023-06-08T22:43:13.846Z,15.33
2023-06-08T22:45:40.644Z,15.25
2023-06-08T22:51:05.448Z,15.19
2023-06-08T22:56:44.840Z,15.16
2023-06-08T22:59:13.118Z,15.19
2023-06-08T23:05:15.239Z,15.11
2023-06-08T23:07:47.307Z,15.03
2023-06-08T23:10:40.274Z,14.95
2023-06-08T23:13:16.230Z,14.86
2023-06-08T23:15:43.025Z,14.89
2023-06-08T23:18:09.890Z,14.93
2023-06-08T23:20:42.392Z,15.05
2023-06-08T23:23:10.726Z,14.99
2023-06-08T23:25:40.367Z,15.00
2023-06-08T23:28:13.699Z,14.99
2023-06-08T23:31:02.215Z,15.03
2023-06-08T23:33:44.821Z,14.99
2023-06-08T23:36:32.113Z,15.06
2023-06-08T23:41:58.028Z,14.89
2023-06-08T23:44:50.896Z,14.79
2023-06-08T23:47:34.716Z,14.80
2023-06-08T23:50:04.979Z,14.71
2023-06-08T23:55:01.832Z,14.62
2023-06-08T23:59:38.046Z,14.78
